Time;durP1;ratioP1;P1;durP2;ratioP2;P2;SDS_P1;SDS_P2;PMS_P1;PMS_P2;Temp;Humidity;BMP_temperature;BMP_pressure;BME280_temperature;BME280_humidity;BME280_pressure;Samples;Min_cycle;Max_cycle;Signal;HPM_P1;HPM_P2
2021/07/06 00:01:35;;;;;;;2.87;2.67;;;21.80;99.90;;;;;;5020035;28;20196;-78
2021/07/06 00:04:01;;;;;;;4.23;2.80;;;21.80;99.90;;;;;;5025905;28;20177;-79
2021/07/06 00:06:26;;;;;;;2.13;1.93;;;21.50;99.90;;;;;;5003920;28;20312;-78
2021/07/06 00:08:52;;;;;;;4.63;2.50;;;21.70;99.90;;;;;;5002508;28;20248;-79
2021/07/06 00:11:18;;;;;;;2.43;2.23;;;21.40;99.90;;;;;;5001764;28;20197;-78
2021/07/06 00:13:43;;;;;;;2.67;2.47;;;21.20;99.90;;;;;;5001461;28;20459;-81
2021/07/06 00:16:11;;;;;;;2.70;2.50;;;21.10;99.90;;;;;;4999581;28;20197;-80
2021/07/06 00:18:37;;;;;;;3.20;2.00;;;21.10;99.90;;;;;;4997293;28;20773;-80
2021/07/06 00:21:03;;;;;;;3.70;2.93;;;21.30;99.90;;;;;;5002097;28;20443;-80
2021/07/06 00:23:29;;;;;;;3.77;2.30;;;21.20;99.90;;;;;;5001169;28;20223;-80
2021/07/06 00:25:55;;;;;;;4.27;2.50;;;21.20;99.90;;;;;;5003647;28;20244;-79
2021/07/06 00:28:23;;;;;;;2.77;2.10;;;21.40;99.90;;;;;;5002028;28;20498;-80
2021/07/06 00:30:49;;;;;;;4.60;2.40;;;21.50;99.90;;;;;;5001748;28;20201;-79
2021/07/06 00:33:15;;;;;;;2.50;2.30;;;21.60;99.90;;;;;;5001996;28;20978;-79
2021/07/06 00:35:42;;;;;;;2.57;2.37;;;21.60;99.90;;;;;;5001519;28;20455;-80
2021/07/06 00:38:08;;;;;;;2.43;2.23;;;21.60;99.90;;;;;;4998121;28;20989;-79
2021/07/06 00:40:34;;;;;;;3.50;2.23;;;21.60;99.90;;;;;;5001932;28;20468;-81
2021/07/06 00:43:00;;;;;;;3.27;2.20;;;21.60;99.90;;;;;;5002596;28;20479;-80
2021/07/06 00:45:27;;;;;;;4.13;2.30;;;21.40;99.90;;;;;;4997344;28;20476;-82
2021/07/06 00:47:53;;;;;;;3.73;2.00;;;21.40;99.90;;;;;;5003916;28;20220;-78
2021/07/06 00:50:22;;;;;;;6.07;2.63;;;21.20;99.90;;;;;;4999577;28;20474;-80
2021/07/06 00:52:49;;;;;;;2.43;2.10;;;21.30;99.90;;;;;;5001992;28;20546;-80
2021/07/06 00:55:15;;;;;;;3.47;2.20;;;21.30;99.90;;;;;;5000566;28;20443;-79
2021/07/06 00:57:41;;;;;;;2.77;2.33;;;21.40;99.90;;;;;;5003091;28;20490;-81
2021/07/06 01:00:15;;;;;;;2.30;2.10;;;21.30;99.90;;;;;;5001330;28;20547;-80
2021/07/06 01:02:41;;;;;;;5.93;2.40;;;21.10;99.90;;;;;;5003585;28;20862;-81
2021/07/06 01:05:10;;;;;;;2.50;2.30;;;20.90;99.90;;;;;;4998310;28;20468;-80
2021/07/06 01:07:36;;;;;;;2.23;2.03;;;20.90;99.90;;;;;;5003161;28;20212;-80
2021/07/06 01:10:05;;;;;;;2.40;2.20;;;21.00;99.90;;;;;;5005552;28;20443;-79
2021/07/06 01:12:31;;;;;;;3.20;2.23;;;20.90;99.90;;;;;;5004835;28;20451;-80
2021/07/06 01:14:58;;;;;;;2.93;2.27;;;21.00;99.90;;;;;;5006305;28;20463;-81
2021/07/06 01:17:25;;;;;;;2.63;2.23;;;21.10;99.90;;;;;;5007107;28;20463;-80
2021/07/06 01:19:51;;;;;;;2.63;2.20;;;20.90;99.90;;;;;;5002854;28;20944;-80
2021/07/06 01:22:31;;;;;;;2.50;2.30;;;21.00;99.90;;;;;;5008584;28;20440;-80
2021/07/06 01:24:58;;;;;;;3.73;2.10;;;21.00;99.90;;;;;;5007015;28;20234;-80
2021/07/06 01:27:24;;;;;;;2.23;2.03;;;20.90;99.90;;;;;;5002979;28;20603;-79
2021/07/06 01:29:52;;;;;;;3.00;2.20;;;20.90;99.90;;;;;;5006012;28;20771;-79
2021/07/06 01:32:20;;;;;;;2.30;2.10;;;20.90;99.90;;;;;;5002861;28;20959;-79
2021/07/06 01:34:46;;;;;;;6.30;2.33;;;20.90;99.90;;;;;;5004128;28;20433;-80
2021/07/06 01:37:17;;;;;;;2.03;1.90;;;20.80;99.90;;;;;;5005899;28;20447;-79
2021/07/06 01:39:43;;;;;;;3.10;1.93;;;20.70;99.90;;;;;;5005224;28;20276;-81
2021/07/06 01:42:09;;;;;;;2.33;2.13;;;20.80;99.90;;;;;;5006864;28;20431;-81
2021/07/06 01:44:35;;;;;;;2.33;2.13;;;21.00;99.90;;;;;;5004340;28;20432;-80
2021/07/06 01:47:00;;;;;;;3.60;2.40;;;20.90;99.90;;;;;;5007939;28;20297;-81
2021/07/06 01:49:26;;;;;;;3.90;2.23;;;20.80;99.90;;;;;;5006770;28;20185;-81
2021/07/06 01:51:51;;;;;;;2.47;2.27;;;20.70;99.90;;;;;;5005211;28;20646;-81
2021/07/06 01:54:17;;;;;;;2.90;2.43;;;20.70;99.90;;;;;;4985640;28;20182;-80
2021/07/06 01:56:47;;;;;;;2.17;2.00;;;20.70;99.90;;;;;;4996430;28;20210;-82
2021/07/06 01:59:14;;;;;;;2.53;2.33;;;20.70;99.90;;;;;;5001138;28;20498;-81
2021/07/06 02:01:42;;;;;;;3.10;2.00;;;20.50;99.90;;;;;;5005113;28;20444;-80
2021/07/06 02:04:08;;;;;;;2.33;2.13;;;20.60;99.90;;;;;;5007022;28;20717;-81
2021/07/06 02:06:34;;;;;;;2.77;2.23;;;20.60;99.90;;;;;;4989354;28;20496;-80
2021/07/06 02:09:00;;;;;;;4.70;2.33;;;20.50;99.90;;;;;;5005182;28;20204;-81
2021/07/06 02:11:26;;;;;;;3.43;2.20;;;20.40;99.90;;;;;;5005175;28;20515;-80
2021/07/06 02:13:54;;;;;;;3.13;2.07;;;20.50;99.90;;;;;;5006091;28;20483;-80
2021/07/06 02:16:20;;;;;;;3.17;1.90;;;20.60;99.90;;;;;;5008290;28;20189;-81
2021/07/06 02:18:46;;;;;;;2.30;2.10;;;20.60;99.90;;;;;;5007567;28;20435;-82
2021/07/06 02:21:12;;;;;;;2.13;1.97;;;20.50;99.90;;;;;;5010418;28;20486;-79
2021/07/06 02:23:37;;;;;;;2.70;2.50;;;20.50;99.90;;;;;;5005536;28;20829;-81
2021/07/06 02:26:06;;;;;;;2.37;2.10;;;20.50;99.90;;;;;;5007727;28;20495;-80
2021/07/06 02:28:33;;;;;;;2.77;2.57;;;20.50;99.90;;;;;;5002744;28;20886;-80
2021/07/06 02:30:58;;;;;;;2.57;2.20;;;20.40;99.90;;;;;;5003901;28;20490;-80
2021/07/06 02:33:24;;;;;;;2.53;2.33;;;20.50;99.90;;;;;;5006706;28;21101;-79
2021/07/06 02:35:50;;;;;;;7.27;2.50;;;20.50;99.90;;;;;;5007499;28;20196;-80
2021/07/06 02:38:17;;;;;;;2.43;2.23;;;20.50;99.90;;;;;;5004157;28;20472;-80
2021/07/06 02:40:44;;;;;;;3.33;2.30;;;20.50;99.90;;;;;;5008153;28;20428;-79
2021/07/06 02:43:10;;;;;;;3.00;2.23;;;20.40;99.90;;;;;;5004712;28;20471;-79
2021/07/06 02:45:36;;;;;;;2.53;2.10;;;20.40;99.90;;;;;;5005429;28;20714;-80
2021/07/06 02:48:02;;;;;;;2.83;2.33;;;20.40;99.90;;;;;;5005969;28;21932;-79
2021/07/06 02:50:28;;;;;;;3.77;2.00;;;20.40;99.90;;;;;;5004769;28;20293;-81
2021/07/06 02:52:54;;;;;;;2.50;2.30;;;20.40;99.90;;;;;;5006970;28;20513;-83
2021/07/06 02:55:21;;;;;;;2.67;2.47;;;20.30;99.90;;;;;;5006163;28;20437;-80
2021/07/06 02:57:47;;;;;;;2.83;2.57;;;20.40;99.90;;;;;;5002245;28;20560;-79
2021/07/06 03:00:16;;;;;;;2.93;2.40;;;20.50;99.90;;;;;;5007915;28;20489;-79
2021/07/06 03:02:47;;;;;;;2.87;2.50;;;20.60;99.90;;;;;;5010217;28;20211;-78
2021/07/06 03:05:16;;;;;;;5.13;2.37;;;20.70;99.90;;;;;;5002877;28;21083;-80
2021/07/06 03:07:43;;;;;;;2.87;2.57;;;20.50;99.90;;;;;;5005683;28;20454;-79
2021/07/06 03:10:10;;;;;;;2.70;2.50;;;20.50;99.90;;;;;;5006739;28;20871;-80
2021/07/06 03:12:37;;;;;;;2.47;2.27;;;20.40;99.90;;;;;;5006127;28;20448;-79
2021/07/06 03:15:05;;;;;;;4.40;2.40;;;20.40;99.90;;;;;;5006841;28;20467;-78
2021/07/06 03:17:30;;;;;;;3.90;2.90;;;20.40;99.90;;;;;;5006255;28;20479;-78
2021/07/06 03:19:56;;;;;;;3.40;2.80;;;20.40;99.90;;;;;;5005596;28;20474;-80
2021/07/06 03:22:22;;;;;;;3.30;3.00;;;20.50;99.90;;;;;;5005408;28;20220;-81
2021/07/06 03:24:47;;;;;;;4.53;2.97;;;20.60;99.90;;;;;;5004827;28;20209;-80
2021/07/06 03:27:13;;;;;;;4.17;2.97;;;20.50;99.90;;;;;;5005220;28;20288;-79
2021/07/06 03:29:38;;;;;;;3.87;2.97;;;20.40;99.90;;;;;;5006020;28;22918;-81
2021/07/06 03:32:05;;;;;;;2.97;2.77;;;20.50;99.90;;;;;;5002442;28;20185;-81
2021/07/06 03:34:30;;;;;;;3.30;2.60;;;20.70;99.90;;;;;;5005591;28;20264;-80
2021/07/06 03:36:56;;;;;;;3.40;3.03;;;20.70;99.90;;;;;;5005846;28;20553;-81
2021/07/06 03:39:22;;;;;;;3.37;2.70;;;20.70;99.90;;;;;;5005014;28;21584;-81
2021/07/06 03:41:47;;;;;;;4.10;2.97;;;20.70;99.90;;;;;;5007535;28;20195;-79
2021/07/06 03:44:13;;;;;;;4.57;2.53;;;20.70;99.90;;;;;;5002077;28;20271;-78
2021/07/06 03:46:38;;;;;;;2.47;2.27;;;20.70;99.90;;;;;;4997454;28;20286;-79
2021/07/06 03:49:04;;;;;;;4.87;3.70;;;20.80;99.90;;;;;;5006404;28;20600;-79
2021/07/06 03:51:33;;;;;;;2.70;2.50;;;20.90;99.90;;;;;;5001379;28;20215;-81
2021/07/06 03:53:58;;;;;;;4.80;4.30;;;20.90;99.90;;;;;;5004310;28;20190;-79
2021/07/06 03:56:24;;;;;;;3.10;2.80;;;20.90;99.90;;;;;;5003810;28;20762;-80
2021/07/06 03:58:50;;;;;;;4.57;4.07;;;20.90;99.90;;;;;;5001704;28;20189;-80
2021/07/06 04:01:15;;;;;;;8.03;2.67;;;21.00;99.90;;;;;;5006612;28;20200;-80
2021/07/06 04:03:41;;;;;;;3.53;2.80;;;21.10;99.90;;;;;;5006493;28;20197;-79
2021/07/06 04:06:07;;;;;;;5.40;2.87;;;21.10;99.90;;;;;;5003057;28;20999;-80
2021/07/06 04:08:32;;;;;;;2.80;2.60;;;21.10;99.90;;;;;;4988894;28;20313;-80
2021/07/06 04:10:58;;;;;;;3.17;2.60;;;21.10;99.90;;;;;;5004035;28;20202;-81
2021/07/06 04:13:23;;;;;;;4.87;2.87;;;21.10;99.90;;;;;;5010026;28;20791;-79
2021/07/06 04:15:49;;;;;;;2.60;2.40;;;21.10;99.90;;;;;;5012225;28;20197;-81
2021/07/06 04:18:15;;;;;;;2.90;2.50;;;21.20;99.90;;;;;;5009728;28;20228;-80
2021/07/06 04:20:40;;;;;;;3.40;3.10;;;21.20;99.90;;;;;;5008050;28;20258;-79
2021/07/06 04:23:07;;;;;;;3.57;3.27;;;21.20;99.90;;;;;;5003105;28;20706;-80
2021/07/06 04:25:35;;;;;;;3.80;3.40;;;21.20;99.90;;;;;;5003485;28;20221;-79
2021/07/06 04:28:01;;;;;;;3.10;2.57;;;21.20;99.90;;;;;;5005639;28;20470;-80
2021/07/06 04:30:27;;;;;;;3.00;2.80;;;21.20;99.90;;;;;;5004309;28;20575;-80
2021/07/06 04:32:52;;;;;;;3.90;2.80;;;21.20;99.90;;;;;;5013737;28;20219;-79
2021/07/06 04:35:22;;;;;;;2.83;2.63;;;21.10;99.90;;;;;;5003192;28;20447;-81
2021/07/06 04:37:48;;;;;;;3.37;2.60;;;21.10;99.90;;;;;;5002555;28;20300;-80
2021/07/06 04:40:15;;;;;;;2.90;2.60;;;21.10;99.90;;;;;;5005953;28;20436;-81
2021/07/06 04:42:41;;;;;;;4.33;3.20;;;21.10;99.90;;;;;;5003474;28;20485;-81
2021/07/06 04:45:07;;;;;;;3.20;2.50;;;21.20;99.90;;;;;;5001229;28;20459;-82
2021/07/06 04:47:33;;;;;;;2.87;2.60;;;21.30;99.90;;;;;;5003656;28;20205;-80
2021/07/06 04:49:58;;;;;;;2.70;2.50;;;21.40;99.90;;;;;;4996741;28;20440;-81
2021/07/06 04:52:24;;;;;;;2.93;2.67;;;21.30;99.90;;;;;;5003480;28;20192;-80
2021/07/06 04:54:49;;;;;;;4.63;2.83;;;21.30;99.90;;;;;;5000713;28;20208;-80
2021/07/06 04:57:21;;;;;;;4.37;2.50;;;21.30;99.90;;;;;;5002761;28;20255;-80
2021/07/06 04:59:47;;;;;;;3.07;2.87;;;20.90;99.90;;;;;;5004950;28;20212;-80
2021/07/06 05:02:13;;;;;;;4.27;3.10;;;20.90;99.90;;;;;;5000368;28;20448;-80
2021/07/06 05:04:38;;;;;;;5.00;3.23;;;21.10;99.90;;;;;;4998864;28;20495;-80
2021/07/06 05:07:04;;;;;;;4.60;3.00;;;21.10;99.90;;;;;;5001704;28;20327;-80
2021/07/06 05:09:32;;;;;;;3.40;3.00;;;21.30;99.90;;;;;;5002278;28;20266;-78
2021/07/06 05:11:58;;;;;;;4.30;2.83;;;21.30;99.90;;;;;;5001018;28;20251;-79
2021/07/06 05:14:23;;;;;;;3.10;2.80;;;21.00;99.90;;;;;;4999746;28;20472;-79
2021/07/06 05:16:49;;;;;;;3.50;3.20;;;21.10;99.90;;;;;;5000364;28;20266;-81
2021/07/06 05:19:15;;;;;;;4.50;3.43;;;21.10;99.90;;;;;;5002938;28;20208;-79
2021/07/06 05:21:40;;;;;;;4.73;3.00;;;21.30;99.90;;;;;;5003089;28;20204;-80
2021/07/06 05:24:06;;;;;;;3.83;3.53;;;21.20;99.90;;;;;;5000377;28;20244;-79
2021/07/06 05:26:32;;;;;;;7.23;3.50;;;21.20;99.90;;;;;;5003576;28;20213;-80
2021/07/06 05:28:58;;;;;;;4.10;3.40;;;21.10;99.90;;;;;;5003032;28;20439;-80
2021/07/06 05:31:23;;;;;;;4.77;3.33;;;21.20;99.90;;;;;;5002602;28;21183;-80
2021/07/06 05:33:49;;;;;;;5.97;3.63;;;21.10;99.90;;;;;;5003869;28;20247;-80
2021/07/06 05:36:15;;;;;;;9.70;4.60;;;21.00;99.90;;;;;;5000123;28;20340;-79
2021/07/06 05:38:40;;;;;;;5.50;4.50;;;21.00;99.90;;;;;;5001797;28;20197;-80
2021/07/06 05:41:08;;;;;;;9.10;4.47;;;21.10;99.90;;;;;;5002172;28;20615;-79
2021/07/06 05:43:33;;;;;;;8.67;4.17;;;21.00;99.90;;;;;;5002491;28;20224;-79
2021/07/06 05:45:59;;;;;;;9.60;4.30;;;21.00;99.90;;;;;;5004375;28;21007;-79
2021/07/06 05:48:25;;;;;;;6.00;3.37;;;21.10;99.90;;;;;;5001826;28;20344;-79
2021/07/06 05:50:51;;;;;;;4.03;2.90;;;21.00;99.90;;;;;;5003941;28;20189;-78
2021/07/06 05:53:16;;;;;;;2.63;2.43;;;21.10;99.90;;;;;;5005063;28;20188;-80
2021/07/06 05:55:45;;;;;;;2.97;2.67;;;21.10;99.90;;;;;;4996133;28;20369;-80
2021/07/06 05:58:12;;;;;;;4.43;2.50;;;21.20;99.90;;;;;;5002411;28;20217;-80
2021/07/06 06:00:38;;;;;;;6.33;3.00;;;21.10;99.90;;;;;;4995035;28;20486;-80
2021/07/06 06:03:08;;;;;;;2.77;2.57;;;21.20;99.90;;;;;;5002269;28;20449;-79
2021/07/06 06:05:35;;;;;;;4.43;2.87;;;21.10;99.90;;;;;;5007134;28;20474;-80
2021/07/06 06:08:00;;;;;;;3.30;2.77;;;21.10;99.90;;;;;;4983739;28;20495;-80
2021/07/06 06:10:26;;;;;;;5.37;3.00;;;21.10;99.90;;;;;;5005836;28;20471;-80
2021/07/06 06:12:52;;;;;;;3.63;2.60;;;21.10;99.90;;;;;;5005858;28;20257;-79
2021/07/06 06:15:18;;;;;;;4.93;2.80;;;21.10;99.90;;;;;;4985276;28;20858;-78
2021/07/06 06:17:43;;;;;;;2.60;2.40;;;21.10;99.90;;;;;;5000616;28;20213;-78
2021/07/06 06:20:10;;;;;;;4.03;2.87;;;21.10;99.90;;;;;;5005404;28;20240;-78
2021/07/06 06:22:35;;;;;;;6.60;2.40;;;21.20;99.90;;;;;;5003020;28;20591;-77
2021/07/06 06:25:02;;;;;;;3.13;2.53;;;21.30;99.90;;;;;;5001565;28;20459;-78
2021/07/06 06:27:28;;;;;;;4.73;2.60;;;21.20;99.90;;;;;;5001754;28;20224;-78
2021/07/06 06:29:54;;;;;;;3.00;2.70;;;21.10;99.90;;;;;;5007201;28;20474;-80
2021/07/06 06:32:19;;;;;;;3.83;2.90;;;21.10;99.90;;;;;;5003707;28;20185;-79
2021/07/06 06:34:45;;;;;;;5.83;2.90;;;20.00;99.90;;;;;;5005805;28;20331;-78
2021/07/06 06:37:11;;;;;;;3.80;2.33;;;21.20;99.90;;;;;;5009904;28;20224;-78
2021/07/06 06:39:37;;;;;;;3.00;2.80;;;21.20;99.90;;;;;;5005031;28;20447;-79
2021/07/06 06:42:03;;;;;;;3.13;2.27;;;21.40;99.90;;;;;;5006683;28;20280;-79
2021/07/06 06:44:29;;;;;;;4.20;2.53;;;21.60;99.90;;;;;;5009212;28;20193;-79
2021/07/06 06:46:55;;;;;;;4.30;2.97;;;22.00;99.90;;;;;;5004358;28;20558;-79
2021/07/06 06:49:20;;;;;;;2.60;2.40;;;22.00;99.90;;;;;;5004022;28;20556;-80
2021/07/06 06:51:46;;;;;;;8.90;3.00;;;22.00;99.90;;;;;;5008262;28;20193;-81
2021/07/06 06:54:12;;;;;;;3.17;2.87;;;22.00;99.90;;;;;;5001673;28;20213;-79
2021/07/06 06:56:40;;;;;;;8.47;2.47;;;21.90;99.90;;;;;;5009752;28;20209;-80
2021/07/06 06:59:08;;;;;;;3.70;2.50;;;22.00;99.90;;;;;;5006523;28;20329;-78
2021/07/06 07:01:35;;;;;;;2.60;2.40;;;22.30;99.90;;;;;;5006495;28;20431;-77
2021/07/06 07:04:01;;;;;;;3.33;3.03;;;22.30;99.90;;;;;;5004837;28;20460;-78
2021/07/06 07:06:27;;;;;;;6.80;3.30;;;22.60;99.90;;;;;;5004776;28;20830;-78
2021/07/06 07:08:52;;;;;;;3.53;3.23;;;22.40;99.90;;;;;;5003594;28;20436;-78
2021/07/06 07:11:18;;;;;;;2.87;2.57;;;22.60;99.90;;;;;;5003886;28;20737;-79
2021/07/06 07:13:44;;;;;;;2.50;2.30;;;22.60;99.90;;;;;;5007645;28;20196;-79
2021/07/06 07:16:10;;;;;;;2.50;2.30;;;22.70;99.90;;;;;;5006901;28;20193;-79
2021/07/06 07:18:35;;;;;;;4.90;2.53;;;22.60;99.90;;;;;;5006669;28;20220;-79
2021/07/06 07:21:01;;;;;;;2.97;2.47;;;22.60;99.90;;;;;;5005143;28;20247;-80
2021/07/06 07:23:27;;;;;;;2.53;2.33;;;22.60;99.90;;;;;;5005677;28;20287;-77
2021/07/06 07:25:52;;;;;;;3.17;2.87;;;22.60;99.90;;;;;;5003950;28;20524;-80
2021/07/06 07:28:19;;;;;;;3.13;2.57;;;22.60;99.90;;;;;;5004081;28;20834;-79
2021/07/06 07:30:45;;;;;;;3.57;2.90;;;22.60;99.90;;;;;;5004016;28;20189;-78
2021/07/06 07:33:10;;;;;;;3.00;2.40;;;22.60;99.90;;;;;;5010119;28;20434;-78
2021/07/06 07:35:36;;;;;;;8.80;3.33;;;22.60;99.90;;;;;;5006410;28;20211;-80
2021/07/06 07:38:02;;;;;;;8.67;3.20;;;22.70;99.90;;;;;;5009220;28;20208;-80
2021/07/06 07:40:28;;;;;;;3.73;2.70;;;22.60;99.90;;;;;;5005761;28;20323;-79
2021/07/06 07:42:53;;;;;;;3.50;2.90;;;22.60;99.90;;;;;;5002842;28;20196;-79
2021/07/06 07:45:19;;;;;;;3.30;3.00;;;22.50;99.90;;;;;;5006369;28;20209;-79
2021/07/06 07:47:45;;;;;;;3.30;3.00;;;22.60;99.90;;;;;;5008042;28;20367;-79
2021/07/06 07:50:11;;;;;;;3.50;3.13;;;22.50;99.90;;;;;;5003390;28;20475;-79
2021/07/06 07:52:37;;;;;;;3.17;2.87;;;22.70;99.90;;;;;;5006730;28;20193;-79
2021/07/06 07:55:04;;;;;;;3.73;2.97;;;22.70;99.90;;;;;;5001698;28;20416;-78
2021/07/06 07:57:30;;;;;;;3.47;3.20;;;22.80;99.90;;;;;;5005304;28;20519;-77
2021/07/06 07:59:56;;;;;;;4.37;3.50;;;22.90;99.90;;;;;;5005860;28;20539;-79
2021/07/06 08:02:22;;;;;;;3.00;2.70;;;22.80;99.90;;;;;;5024241;28;20251;-78
2021/07/06 08:04:48;;;;;;;2.70;2.50;;;22.50;99.90;;;;;;5003765;28;20729;-78
2021/07/06 08:07:14;;;;;;;3.93;3.23;;;22.30;99.90;;;;;;5006858;28;20478;-80
2021/07/06 08:09:40;;;;;;;3.47;2.70;;;22.10;99.90;;;;;;5005336;28;20528;-79
2021/07/06 08:12:06;;;;;;;3.80;2.70;;;22.10;99.90;;;;;;5003727;28;20198;-78
2021/07/06 08:14:33;;;;;;;3.83;2.80;;;22.30;99.90;;;;;;5008496;28;20182;-79
2021/07/06 08:16:59;;;;;;;3.00;2.70;;;22.40;99.90;;;;;;5005810;28;20471;-80
2021/07/06 08:19:25;;;;;;;3.93;2.87;;;22.30;99.90;;;;;;5006023;28;20452;-77
2021/07/06 08:21:51;;;;;;;4.00;3.00;;;22.20;99.90;;;;;;5004367;28;20190;-78
2021/07/06 08:24:17;;;;;;;3.70;2.87;;;22.10;99.90;;;;;;5007177;28;20490;-78
2021/07/06 08:26:44;;;;;;;3.37;3.03;;;22.10;99.90;;;;;;5006947;28;20213;-77
2021/07/06 08:29:10;;;;;;;3.93;3.40;;;22.10;99.90;;;;;;5004705;28;20448;-78
2021/07/06 08:31:36;;;;;;;3.53;3.23;;;22.10;99.90;;;;;;5004311;28;20959;-77
2021/07/06 08:34:02;;;;;;;3.93;3.03;;;22.00;99.90;;;;;;5004168;28;20445;-78
2021/07/06 08:36:28;;;;;;;5.10;3.60;;;22.00;99.90;;;;;;5002031;28;20207;-78
2021/07/06 08:38:54;;;;;;;3.37;2.80;;;21.90;99.90;;;;;;5006960;28;21131;-77
2021/07/06 08:41:19;;;;;;;3.87;3.50;;;21.80;99.90;;;;;;5004033;28;20194;-78
2021/07/06 08:43:45;;;;;;;4.70;3.33;;;21.60;99.90;;;;;;5002876;28;20193;-80
2021/07/06 08:46:17;;;;;;;5.97;3.17;;;21.40;99.90;;;;;;5001903;28;20213;-78
2021/07/06 08:48:46;;;;;;;4.43;3.13;;;21.10;99.90;;;;;;5005317;28;20181;-79
2021/07/06 08:51:17;;;;;;;3.23;2.93;;;20.70;99.90;;;;;;5006747;28;20436;-79
2021/07/06 08:53:42;;;;;;;3.40;3.10;;;20.40;99.90;;;;;;5006248;28;21075;-78
2021/07/06 08:56:08;;;;;;;4.70;3.37;;;20.30;99.90;;;;;;5002489;28;20532;-79
2021/07/06 08:58:34;;;;;;;5.63;3.40;;;20.20;99.90;;;;;;5001897;28;20214;-79
2021/07/06 09:01:01;;;;;;;3.67;2.73;;;20.10;99.90;;;;;;5007368;28;20192;-79
2021/07/06 09:03:46;;;;;;;5.10;3.87;;;20.00;99.90;;;;;;5000788;28;20489;-78
2021/07/06 09:06:12;;;;;;;5.23;2.67;;;20.00;99.90;;;;;;5000626;28;20594;-77
2021/07/06 09:08:38;;;;;;;3.43;2.90;;;20.10;99.90;;;;;;5004509;28;20518;-76
2021/07/06 09:11:16;;;;;;;6.67;3.60;;;20.00;99.90;;;;;;5002653;28;20428;-79
2021/07/06 09:13:42;;;;;;;3.87;2.47;;;20.00;99.90;;;;;;5003832;28;20200;-78
2021/07/06 09:16:07;;;;;;;4.50;3.47;;;20.00;99.90;;;;;;5006737;28;20440;-78
2021/07/06 09:18:34;;;;;;;4.10;2.50;;;20.10;99.90;;;;;;5001064;28;20216;-79
2021/07/06 09:21:02;;;;;;;2.23;2.03;;;20.10;99.90;;;;;;4999130;28;20753;-77
2021/07/06 09:23:39;;;;;;;5.97;2.57;;;20.20;99.90;;;;;;5000308;28;20440;-78
2021/07/06 09:26:13;;;;;;;4.10;3.07;;;20.20;99.90;;;;;;5002127;28;20527;-79
2021/07/06 09:28:42;;;;;;;4.37;2.97;;;20.30;99.90;;;;;;5000984;28;20509;-79
2021/07/06 09:31:43;;;;;;;3.10;2.80;;;20.40;99.90;;;;;;5004798;28;20453;-82
2021/07/06 09:34:12;;;;;;;5.30;2.63;;;20.40;99.90;;;;;;4949517;28;20509;-80
2021/07/06 09:36:42;;;;;;;4.80;3.20;;;20.40;99.90;;;;;;5004284;28;20590;-81
2021/07/06 09:39:19;;;;;;;5.27;3.03;;;20.50;99.90;;;;;;5014468;28;20440;-82
2021/07/06 09:42:10;;;;;;;3.90;2.73;;;20.60;99.90;;;;;;5009099;28;20868;-79
2021/07/06 09:44:39;;;;;;;4.47;2.93;;;20.70;99.90;;;;;;5009039;28;20543;-79
2021/07/06 09:47:12;;;;;;;3.17;2.87;;;20.70;99.90;;;;;;5007804;28;20558;-79
2021/07/06 09:49:42;;;;;;;4.80;3.00;;;20.80;99.90;;;;;;5009894;28;20420;-80
2021/07/06 09:52:15;;;;;;;2.60;2.27;;;20.90;99.90;;;;;;5009313;28;20427;-80
2021/07/06 09:54:46;;;;;;;4.13;2.40;;;20.90;99.90;;;;;;5008222;28;20470;-79
2021/07/06 09:57:21;;;;;;;2.57;2.37;;;21.00;99.90;;;;;;5010016;28;20466;-79
2021/07/06 10:00:14;;;;;;;3.97;3.00;;;20.90;99.90;;;;;;4992612;28;20435;-80
2021/07/06 10:02:42;;;;;;;5.67;2.30;;;20.70;99.90;;;;;;5007421;28;20440;-78
2021/07/06 10:05:16;;;;;;;2.60;2.40;;;20.80;99.90;;;;;;5008708;28;20436;-79
2021/07/06 10:07:42;;;;;;;3.23;2.30;;;20.80;99.90;;;;;;5007563;28;20493;-81
2021/07/06 10:10:11;;;;;;;3.63;2.73;;;20.70;99.90;;;;;;5007428;28;20443;-81
2021/07/06 10:12:39;;;;;;;4.67;2.77;;;21.00;99.90;;;;;;5007145;28;20817;-80
2021/07/06 10:15:10;;;;;;;4.60;2.27;;;21.10;99.90;;;;;;5019995;28;20478;-80
2021/07/06 10:17:37;;;;;;;2.87;2.60;;;21.10;99.90;;;;;;5007074;28;20962;-81
2021/07/06 10:20:05;;;;;;;2.87;2.57;;;21.20;99.90;;;;;;5007423;28;20438;-81
2021/07/06 10:22:31;;;;;;;4.80;2.57;;;21.30;99.90;;;;;;5006450;28;20455;-80
2021/07/06 10:25:00;;;;;;;5.20;2.93;;;21.10;99.90;;;;;;5004463;28;20436;-81
2021/07/06 10:27:29;;;;;;;4.07;2.80;;;21.10;99.90;;;;;;5012150;28;20261;-82
2021/07/06 10:30:14;;;;;;;2.00;1.90;;;21.10;99.90;;;;;;5018972;28;20464;-79
2021/07/06 10:32:45;;;;;;;4.50;3.03;;;21.00;99.90;;;;;;5031468;28;20432;-80
2021/07/06 10:35:14;;;;;;;2.40;2.07;;;21.00;99.90;;;;;;5020220;28;20452;-79
2021/07/06 10:37:41;;;;;;;2.20;2.00;;;20.90;99.90;;;;;;5024883;28;20510;-80
2021/07/06 10:40:22;;;;;;;3.60;2.10;;;20.70;99.90;;;;;;5021035;28;20443;-79
2021/07/06 10:42:51;;;;;;;2.70;2.20;;;20.90;99.90;;;;;;5022420;28;20463;-80
2021/07/06 10:45:20;;;;;;;5.63;2.20;;;20.90;99.90;;;;;;5018654;28;20471;-80
2021/07/06 10:47:51;;;;;;;4.07;1.93;;;20.90;99.90;;;;;;5012217;28;20448;-78
2021/07/06 10:50:23;;;;;;;2.17;1.80;;;21.00;99.90;;;;;;5021365;28;20540;-80
2021/07/06 10:53:20;;;;;;;3.43;1.80;;;20.90;99.90;;;;;;5002761;28;20830;-80
2021/07/06 10:56:08;;;;;;;2.33;1.77;;;21.00;99.90;;;;;;5007272;28;20451;-80
2021/07/06 10:58:54;;;;;;;4.47;1.77;;;21.00;99.90;;;;;;5005853;28;21182;-78
2021/07/06 11:01:38;;;;;;;2.07;1.87;;;21.20;99.90;;;;;;5003295;28;20452;-81
2021/07/06 11:04:09;;;;;;;1.90;1.80;;;21.30;99.90;;;;;;5005184;28;20452;-80
2021/07/06 11:06:44;;;;;;;2.70;1.90;;;21.60;99.90;;;;;;5004848;28;20564;-81
2021/07/06 11:09:10;;;;;;;2.03;1.83;;;21.70;99.90;;;;;;5010473;28;20450;-79
2021/07/06 11:11:36;;;;;;;2.57;1.87;;;21.90;99.90;;;;;;5008082;28;20416;-80
2021/07/06 11:14:26;;;;;;;2.40;1.77;;;21.80;99.90;;;;;;5007493;28;20420;-80
2021/07/06 11:16:56;;;;;;;2.20;1.77;;;21.70;99.90;;;;;;5007143;28;20444;-81
2021/07/06 11:19:36;;;;;;;2.30;1.73;;;21.60;99.90;;;;;;5008734;28;20452;-80
2021/07/06 11:22:17;;;;;;;3.07;2.10;;;21.60;99.90;;;;;;5010560;28;20539;-80
2021/07/06 11:24:45;;;;;;;1.77;1.67;;;21.60;99.90;;;;;;5004681;28;20808;-80
2021/07/06 11:27:14;;;;;;;2.43;1.93;;;21.50;99.90;;;;;;5009444;28;20556;-78
2021/07/06 11:29:42;;;;;;;2.37;1.93;;;21.50;99.90;;;;;;5005245;28;20432;-81
2021/07/06 11:32:09;;;;;;;2.10;1.90;;;21.40;99.90;;;;;;5009697;28;20468;-79
2021/07/06 11:34:37;;;;;;;2.10;1.90;;;21.30;99.90;;;;;;5008547;28;20460;-79
2021/07/06 11:37:05;;;;;;;2.47;1.97;;;21.10;99.90;;;;;;5006798;28;20444;-80
2021/07/06 11:39:33;;;;;;;2.17;1.97;;;20.90;99.90;;;;;;5006138;28;21385;-79
2021/07/06 11:41:59;;;;;;;3.30;1.80;;;20.70;99.90;;;;;;5004939;28;20448;-78
2021/07/06 11:44:24;;;;;;;2.70;1.70;;;20.70;99.90;;;;;;5006150;28;22096;-79
2021/07/06 11:46:55;;;;;;;3.23;1.90;;;20.80;99.90;;;;;;5006600;28;20240;-80
2021/07/06 11:49:21;;;;;;;2.47;2.27;;;20.80;99.90;;;;;;5007667;28;20204;-80
2021/07/06 11:51:47;;;;;;;2.13;1.93;;;20.70;99.90;;;;;;5009061;28;20804;-79
2021/07/06 11:54:16;;;;;;;1.90;1.70;;;20.70;99.90;;;;;;4990904;28;20436;-80
2021/07/06 11:56:42;;;;;;;2.50;1.80;;;20.60;99.90;;;;;;5009486;28;20209;-80
2021/07/06 11:59:11;;;;;;;2.00;1.80;;;20.50;99.90;;;;;;5005671;28;20444;-80
2021/07/06 12:01:37;;;;;;;2.67;2.30;;;20.50;99.90;;;;;;5010567;28;20314;-81
2021/07/06 12:04:04;;;;;;;2.83;2.03;;;20.50;99.90;;;;;;5007769;28;20433;-80
2021/07/06 12:06:31;;;;;;;2.57;1.83;;;20.50;99.90;;;;;;5006393;28;20467;-80
2021/07/06 12:09:04;;;;;;;2.73;2.10;;;20.50;99.90;;;;;;5009403;28;20522;-81
2021/07/06 12:11:30;;;;;;;2.83;2.63;;;20.50;99.90;;;;;;5008150;28;20428;-79
2021/07/06 12:14:02;;;;;;;5.93;2.10;;;20.40;99.90;;;;;;5005812;28;20431;-81
2021/07/06 12:16:36;;;;;;;5.77;2.00;;;20.30;99.90;;;;;;5008495;28;20193;-81
2021/07/06 12:19:08;;;;;;;6.43;2.10;;;20.30;99.90;;;;;;5009532;28;20833;-81
2021/07/06 12:21:40;;;;;;;2.27;1.90;;;20.20;99.90;;;;;;5008568;28;20456;-80
2021/07/06 12:24:07;;;;;;;2.00;1.80;;;20.20;99.90;;;;;;5006642;28;20512;-80
2021/07/06 12:26:37;;;;;;;2.10;1.90;;;20.20;99.90;;;;;;5009677;28;20479;-81
2021/07/06 12:29:03;;;;;;;3.10;1.80;;;20.20;99.90;;;;;;5011224;28;20436;-81
2021/07/06 12:31:34;;;;;;;1.83;1.73;;;20.20;99.90;;;;;;5010268;28;20428;-81
2021/07/06 12:34:15;;;;;;;2.27;1.80;;;20.10;99.90;;;;;;5006709;28;20509;-81
2021/07/06 12:36:44;;;;;;;1.70;1.60;;;20.00;99.90;;;;;;5006733;28;20444;-81
2021/07/06 12:39:17;;;;;;;2.03;1.50;;;20.00;99.90;;;;;;5011108;28;20443;-82
2021/07/06 12:41:55;;;;;;;2.97;1.83;;;20.00;99.90;;;;;;5006494;28;20476;-80
2021/07/06 12:44:32;;;;;;;1.80;1.70;;;20.00;99.90;;;;;;5003423;28;20448;-81
2021/07/06 12:47:17;;;;;;;1.80;1.60;;;19.90;99.90;;;;;;5008015;28;20475;-81
2021/07/06 12:49:49;;;;;;;2.00;1.67;;;20.00;99.90;;;;;;5007001;28;20427;-80
2021/07/06 12:52:15;;;;;;;2.50;1.83;;;19.90;99.90;;;;;;5006048;28;20459;-81